sensor_id;sensor_type;location;lat;lon;timestamp;P1;durP1;ratioP1;P2;durP2;ratioP2
52208;SDS011;38507;53.132;6.394;2023-01-10T00:00:40;21.38;;;2.17;;
52208;SDS011;38507;53.132;6.394;2023-01-10T00:03:07;16.33;;;2.75;;
52208;SDS011;38507;53.132;6.394;2023-01-10T00:05:37;14.38;;;2.72;;
52208;SDS011;38507;53.132;6.394;2023-01-10T00:08:04;16.48;;;2.60;;
52208;SDS011;38507;53.132;6.394;2023-01-10T00:10:30;13.48;;;2.40;;
52208;SDS011;38507;53.132;6.394;2023-01-10T00:12:57;16.33;;;2.30;;
52208;SDS011;38507;53.132;6.394;2023-01-10T00:15:55;15.10;;;2.80;;
52208;SDS011;38507;53.132;6.394;2023-01-10T00:18:21;21.85;;;2.75;;
52208;SDS011;38507;53.132;6.394;2023-01-10T00:20:47;18.10;;;3.05;;
52208;SDS011;38507;53.132;6.394;2023-01-10T00:23:13;22.08;;;2.88;;
52208;SDS011;38507;53.132;6.394;2023-01-10T00:25:40;21.80;;;2.72;;
52208;SDS011;38507;53.132;6.394;2023-01-10T00:28:06;18.67;;;3.80;;
52208;SDS011;38507;53.132;6.394;2023-01-10T00:30:45;28.38;;;3.40;;
52208;SDS011;38507;53.132;6.394;2023-01-10T00:33:34;20.00;;;3.10;;
52208;SDS011;38507;53.132;6.394;2023-01-10T00:36:01;14.93;;;2.70;;
52208;SDS011;38507;53.132;6.394;2023-01-10T00:38:32;21.40;;;3.00;;
52208;SDS011;38507;53.132;6.394;2023-01-10T00:40:59;22.65;;;3.17;;
52208;SDS011;38507;53.132;6.394;2023-01-10T00:43:24;27.75;;;3.90;;
52208;SDS011;38507;53.132;6.394;2023-01-10T00:46:09;18.33;;;3.10;;
52208;SDS011;38507;53.132;6.394;2023-01-10T00:48:35;25.20;;;2.97;;
52208;SDS011;38507;53.132;6.394;2023-01-10T00:51:00;24.90;;;3.08;;
52208;SDS011;38507;53.132;6.394;2023-01-10T00:53:27;25.33;;;3.58;;
52208;SDS011;38507;53.132;6.394;2023-01-10T00:55:53;23.95;;;3.22;;
52208;SDS011;38507;53.132;6.394;2023-01-10T00:58:19;28.00;;;3.22;;
52208;SDS011;38507;53.132;6.394;2023-01-10T01:00:45;25.30;;;3.17;;
52208;SDS011;38507;53.132;6.394;2023-01-10T01:03:13;15.95;;;2.88;;
52208;SDS011;38507;53.132;6.394;2023-01-10T01:05:40;24.83;;;3.88;;
52208;SDS011;38507;53.132;6.394;2023-01-10T01:08:07;29.35;;;3.78;;
52208;SDS011;38507;53.132;6.394;2023-01-10T01:10:33;27.38;;;3.35;;
52208;SDS011;38507;53.132;6.394;2023-01-10T01:13:04;21.67;;;3.40;;
52208;SDS011;38507;53.132;6.394;2023-01-10T01:15:32;15.38;;;2.75;;
52208;SDS011;38507;53.132;6.394;2023-01-10T01:17:59;17.65;;;3.13;;
52208;SDS011;38507;53.132;6.394;2023-01-10T01:20:26;15.93;;;2.60;;
52208;SDS011;38507;53.132;6.394;2023-01-10T01:22:51;19.45;;;2.95;;
52208;SDS011;38507;53.132;6.394;2023-01-10T01:25:17;19.23;;;2.97;;
52208;SDS011;38507;53.132;6.394;2023-01-10T01:27:43;16.58;;;2.47;;
52208;SDS011;38507;53.132;6.394;2023-01-10T01:30:14;26.25;;;4.18;;
52208;SDS011;38507;53.132;6.394;2023-01-10T01:32:40;27.13;;;3.53;;
52208;SDS011;38507;53.132;6.394;2023-01-10T01:35:06;20.55;;;2.78;;
52208;SDS011;38507;53.132;6.394;2023-01-10T01:37:33;21.05;;;3.05;;
52208;SDS011;38507;53.132;6.394;2023-01-10T01:39:59;12.52;;;3.00;;
52208;SDS011;38507;53.132;6.394;2023-01-10T01:42:25;24.52;;;3.28;;
52208;SDS011;38507;53.132;6.394;2023-01-10T01:48:00;25.27;;;3.05;;
52208;SDS011;38507;53.132;6.394;2023-01-10T01:50:33;24.38;;;2.80;;
52208;SDS011;38507;53.132;6.394;2023-01-10T01:53:09;22.67;;;3.15;;
52208;SDS011;38507;53.132;6.394;2023-01-10T01:55:39;18.63;;;2.63;;
52208;SDS011;38507;53.132;6.394;2023-01-10T01:58:11;23.95;;;3.13;;
52208;SDS011;38507;53.132;6.394;2023-01-10T02:00:41;17.13;;;2.83;;
52208;SDS011;38507;53.132;6.394;2023-01-10T02:03:06;27.48;;;3.05;;
52208;SDS011;38507;53.132;6.394;2023-01-10T02:05:33;22.35;;;3.45;;
52208;SDS011;38507;53.132;6.394;2023-01-10T02:08:05;23.20;;;3.22;;
52208;SDS011;38507;53.132;6.394;2023-01-10T02:10:39;22.67;;;2.92;;
52208;SDS011;38507;53.132;6.394;2023-01-10T02:13:17;21.70;;;3.15;;
52208;SDS011;38507;53.132;6.394;2023-01-10T02:15:44;23.58;;;3.78;;
52208;SDS011;38507;53.132;6.394;2023-01-10T02:18:10;17.73;;;2.80;;
52208;SDS011;38507;53.132;6.394;2023-01-10T02:21:01;18.50;;;3.25;;
52208;SDS011;38507;53.132;6.394;2023-01-10T02:23:42;27.55;;;3.47;;
52208;SDS011;38507;53.132;6.394;2023-01-10T02:34:45;16.23;;;3.00;;
52208;SDS011;38507;53.132;6.394;2023-01-10T02:37:44;26.30;;;3.38;;
52208;SDS011;38507;53.132;6.394;2023-01-10T02:43:13;22.95;;;2.70;;
52208;SDS011;38507;53.132;6.394;2023-01-10T02:48:19;19.90;;;3.03;;
52208;SDS011;38507;53.132;6.394;2023-01-10T02:50:56;24.55;;;3.13;;
52208;SDS011;38507;53.132;6.394;2023-01-10T02:53:38;22.27;;;3.00;;
52208;SDS011;38507;53.132;6.394;2023-01-10T02:56:17;18.90;;;3.00;;
52208;SDS011;38507;53.132;6.394;2023-01-10T03:11:03;25.92;;;2.95;;
52208;SDS011;38507;53.132;6.394;2023-01-10T03:16:35;18.40;;;2.90;;
52208;SDS011;38507;53.132;6.394;2023-01-10T03:19:09;19.08;;;3.15;;
52208;SDS011;38507;53.132;6.394;2023-01-10T03:24:47;26.80;;;2.97;;
52208;SDS011;38507;53.132;6.394;2023-01-10T03:27:21;20.20;;;3.17;;
52208;SDS011;38507;53.132;6.394;2023-01-10T03:33:39;30.50;;;3.83;;
52208;SDS011;38507;53.132;6.394;2023-01-10T03:48:36;21.70;;;3.08;;
52208;SDS011;38507;53.132;6.394;2023-01-10T03:51:06;17.23;;;2.63;;
52208;SDS011;38507;53.132;6.394;2023-01-10T03:53:32;18.65;;;2.85;;
52208;SDS011;38507;53.132;6.394;2023-01-10T03:56:16;18.63;;;2.50;;
52208;SDS011;38507;53.132;6.394;2023-01-10T03:58:42;23.83;;;3.08;;
52208;SDS011;38507;53.132;6.394;2023-01-10T04:01:08;15.25;;;3.17;;
52208;SDS011;38507;53.132;6.394;2023-01-10T04:03:45;18.20;;;2.83;;
52208;SDS011;38507;53.132;6.394;2023-01-10T04:06:11;20.30;;;3.05;;
52208;SDS011;38507;53.132;6.394;2023-01-10T04:08:39;25.48;;;2.78;;
52208;SDS011;38507;53.132;6.394;2023-01-10T04:14:21;18.17;;;2.92;;
52208;SDS011;38507;53.132;6.394;2023-01-10T04:16:47;20.45;;;2.95;;
52208;SDS011;38507;53.132;6.394;2023-01-10T04:19:15;18.73;;;2.90;;
52208;SDS011;38507;53.132;6.394;2023-01-10T04:21:50;21.85;;;3.05;;
52208;SDS011;38507;53.132;6.394;2023-01-10T04:24:43;23.30;;;3.10;;
52208;SDS011;38507;53.132;6.394;2023-01-10T04:27:12;18.85;;;3.05;;
52208;SDS011;38507;53.132;6.394;2023-01-10T04:29:38;19.05;;;2.63;;
52208;SDS011;38507;53.132;6.394;2023-01-10T04:32:17;20.48;;;3.08;;
52208;SDS011;38507;53.132;6.394;2023-01-10T04:34:43;21.08;;;3.20;;
52208;SDS011;38507;53.132;6.394;2023-01-10T04:37:11;27.48;;;3.60;;
52208;SDS011;38507;53.132;6.394;2023-01-10T04:39:37;20.35;;;2.75;;
52208;SDS011;38507;53.132;6.394;2023-01-10T04:42:16;25.50;;;3.35;;
52208;SDS011;38507;53.132;6.394;2023-01-10T04:44:59;20.20;;;3.63;;
52208;SDS011;38507;53.132;6.394;2023-01-10T04:47:26;23.95;;;2.97;;
52208;SDS011;38507;53.132;6.394;2023-01-10T04:50:01;22.98;;;3.67;;
52208;SDS011;38507;53.132;6.394;2023-01-10T04:52:34;21.48;;;2.92;;
52208;SDS011;38507;53.132;6.394;2023-01-10T04:55:00;19.13;;;3.17;;
52208;SDS011;38507;53.132;6.394;2023-01-10T04:57:41;17.02;;;2.63;;
52208;SDS011;38507;53.132;6.394;2023-01-10T05:00:07;22.10;;;2.70;;
52208;SDS011;38507;53.132;6.394;2023-01-10T05:02:33;25.85;;;3.47;;
52208;SDS011;38507;53.132;6.394;2023-01-10T05:05:11;21.50;;;2.58;;
52208;SDS011;38507;53.132;6.394;2023-01-10T05:07:38;13.57;;;2.30;;
52208;SDS011;38507;53.132;6.394;2023-01-10T05:10:05;15.75;;;2.38;;
52208;SDS011;38507;53.132;6.394;2023-01-10T05:12:31;15.45;;;2.47;;
52208;SDS011;38507;53.132;6.394;2023-01-10T05:14:57;13.38;;;1.95;;
52208;SDS011;38507;53.132;6.394;2023-01-10T05:17:23;12.23;;;2.00;;
52208;SDS011;38507;53.132;6.394;2023-01-10T05:19:49;16.48;;;2.67;;
52208;SDS011;38507;53.132;6.394;2023-01-10T05:22:17;20.92;;;3.03;;
52208;SDS011;38507;53.132;6.394;2023-01-10T05:24:52;20.08;;;3.22;;
52208;SDS011;38507;53.132;6.394;2023-01-10T05:27:18;9.77;;;2.38;;
52208;SDS011;38507;53.132;6.394;2023-01-10T05:29:43;22.67;;;3.58;;
52208;SDS011;38507;53.132;6.394;2023-01-10T05:32:09;16.40;;;3.13;;
52208;SDS011;38507;53.132;6.394;2023-01-10T05:34:35;16.15;;;2.75;;
52208;SDS011;38507;53.132;6.394;2023-01-10T05:37:01;10.43;;;1.65;;
52208;SDS011;38507;53.132;6.394;2023-01-10T05:39:26;14.00;;;2.25;;
52208;SDS011;38507;53.132;6.394;2023-01-10T05:41:52;12.13;;;1.98;;
52208;SDS011;38507;53.132;6.394;2023-01-10T05:44:20;10.15;;;1.83;;
52208;SDS011;38507;53.132;6.394;2023-01-10T05:46:49;9.63;;;2.05;;
52208;SDS011;38507;53.132;6.394;2023-01-10T05:49:14;11.50;;;1.88;;
52208;SDS011;38507;53.132;6.394;2023-01-10T05:51:40;11.68;;;1.98;;
52208;SDS011;38507;53.132;6.394;2023-01-10T05:54:06;9.50;;;1.95;;
52208;SDS011;38507;53.132;6.394;2023-01-10T05:56:32;7.95;;;1.60;;
52208;SDS011;38507;53.132;6.394;2023-01-10T05:59:00;12.35;;;1.63;;
52208;SDS011;38507;53.132;6.394;2023-01-10T06:01:26;10.40;;;1.65;;
52208;SDS011;38507;53.132;6.394;2023-01-10T06:03:51;11.38;;;1.90;;
52208;SDS011;38507;53.132;6.394;2023-01-10T06:06:17;9.48;;;1.92;;
52208;SDS011;38507;53.132;6.394;2023-01-10T06:08:42;17.27;;;2.35;;
52208;SDS011;38507;53.132;6.394;2023-01-10T06:11:08;8.57;;;1.58;;
52208;SDS011;38507;53.132;6.394;2023-01-10T06:13:34;10.30;;;1.77;;
52208;SDS011;38507;53.132;6.394;2023-01-10T06:15:59;12.95;;;2.22;;
52208;SDS011;38507;53.132;6.394;2023-01-10T06:18:25;9.05;;;1.77;;
52208;SDS011;38507;53.132;6.394;2023-01-10T06:20:51;19.00;;;2.80;;
52208;SDS011;38507;53.132;6.394;2023-01-10T06:23:17;13.10;;;2.40;;
52208;SDS011;38507;53.132;6.394;2023-01-10T06:25:42;12.82;;;1.90;;
52208;SDS011;38507;53.132;6.394;2023-01-10T06:28:09;13.27;;;2.10;;
52208;SDS011;38507;53.132;6.394;2023-01-10T06:30:36;10.38;;;1.95;;
52208;SDS011;38507;53.132;6.394;2023-01-10T06:33:03;15.35;;;2.03;;
52208;SDS011;38507;53.132;6.394;2023-01-10T06:35:30;12.38;;;1.98;;
52208;SDS011;38507;53.132;6.394;2023-01-10T06:37:55;17.13;;;2.22;;
52208;SDS011;38507;53.132;6.394;2023-01-10T06:40:27;13.27;;;1.45;;
52208;SDS011;38507;53.132;6.394;2023-01-10T06:42:55;8.45;;;1.75;;
52208;SDS011;38507;53.132;6.394;2023-01-10T06:45:21;15.30;;;1.98;;
52208;SDS011;38507;53.132;6.394;2023-01-10T06:47:54;10.77;;;1.80;;
52208;SDS011;38507;53.132;6.394;2023-01-10T06:51:09;11.40;;;1.98;;
52208;SDS011;38507;53.132;6.394;2023-01-10T06:56:46;17.88;;;2.35;;
52208;SDS011;38507;53.132;6.394;2023-01-10T06:59:21;14.30;;;2.33;;
52208;SDS011;38507;53.132;6.394;2023-01-10T07:01:59;17.67;;;2.95;;
52208;SDS011;38507;53.132;6.394;2023-01-10T07:04:34;22.08;;;3.70;;
52208;SDS011;38507;53.132;6.394;2023-01-10T07:07:00;22.42;;;3.03;;
52208;SDS011;38507;53.132;6.394;2023-01-10T07:09:26;20.00;;;3.28;;
52208;SDS011;38507;53.132;6.394;2023-01-10T07:11:52;22.38;;;3.42;;
52208;SDS011;38507;53.132;6.394;2023-01-10T07:14:21;20.83;;;3.03;;
52208;SDS011;38507;53.132;6.394;2023-01-10T07:16:47;21.95;;;2.90;;
52208;SDS011;38507;53.132;6.394;2023-01-10T07:19:24;24.02;;;3.65;;
52208;SDS011;38507;53.132;6.394;2023-01-10T07:21:56;23.48;;;3.45;;
52208;SDS011;38507;53.132;6.394;2023-01-10T07:24:24;21.92;;;3.90;;
52208;SDS011;38507;53.132;6.394;2023-01-10T07:29:47;25.15;;;4.07;;
52208;SDS011;38507;53.132;6.394;2023-01-10T07:32:18;28.10;;;4.28;;
52208;SDS011;38507;53.132;6.394;2023-01-10T07:34:44;25.77;;;4.38;;
52208;SDS011;38507;53.132;6.394;2023-01-10T07:37:19;29.52;;;3.50;;
52208;SDS011;38507;53.132;6.394;2023-01-10T07:39:48;31.20;;;4.55;;
52208;SDS011;38507;53.132;6.394;2023-01-10T07:42:14;25.83;;;3.85;;
52208;SDS011;38507;53.132;6.394;2023-01-10T07:44:39;18.45;;;3.97;;
52208;SDS011;38507;53.132;6.394;2023-01-10T07:47:08;31.10;;;4.53;;
52208;SDS011;38507;53.132;6.394;2023-01-10T07:49:50;28.33;;;5.32;;
52208;SDS011;38507;53.132;6.394;2023-01-10T07:52:18;30.90;;;5.45;;
52208;SDS011;38507;53.132;6.394;2023-01-10T07:54:43;29.42;;;5.35;;
52208;SDS011;38507;53.132;6.394;2023-01-10T07:57:21;29.67;;;5.53;;
52208;SDS011;38507;53.132;6.394;2023-01-10T07:59:49;25.95;;;4.40;;
52208;SDS011;38507;53.132;6.394;2023-01-10T08:02:23;24.20;;;4.90;;
52208;SDS011;38507;53.132;6.394;2023-01-10T08:05:04;35.72;;;5.00;;
52208;SDS011;38507;53.132;6.394;2023-01-10T08:07:38;29.45;;;5.88;;
52208;SDS011;38507;53.132;6.394;2023-01-10T08:10:07;22.73;;;4.25;;
52208;SDS011;38507;53.132;6.394;2023-01-10T08:12:36;38.58;;;4.82;;
52208;SDS011;38507;53.132;6.394;2023-01-10T08:15:34;37.50;;;4.80;;
52208;SDS011;38507;53.132;6.394;2023-01-10T08:18:25;26.88;;;4.40;;
52208;SDS011;38507;53.132;6.394;2023-01-10T08:21:01;32.67;;;4.60;;
52208;SDS011;38507;53.132;6.394;2023-01-10T08:24:24;27.05;;;4.40;;
52208;SDS011;38507;53.132;6.394;2023-01-10T08:26:49;33.47;;;5.32;;
52208;SDS011;38507;53.132;6.394;2023-01-10T08:29:18;27.20;;;5.15;;
52208;SDS011;38507;53.132;6.394;2023-01-10T08:32:19;28.60;;;5.15;;
52208;SDS011;38507;53.132;6.394;2023-01-10T08:34:45;23.35;;;4.82;;
52208;SDS011;38507;53.132;6.394;2023-01-10T08:37:17;28.45;;;4.72;;
52208;SDS011;38507;53.132;6.394;2023-01-10T08:39:42;26.20;;;4.18;;
52208;SDS011;38507;53.132;6.394;2023-01-10T08:42:08;27.88;;;5.13;;
52208;SDS011;38507;53.132;6.394;2023-01-10T08:44:37;29.63;;;4.25;;
52208;SDS011;38507;53.132;6.394;2023-01-10T08:47:03;29.50;;;4.72;;
52208;SDS011;38507;53.132;6.394;2023-01-10T08:49:28;32.25;;;4.53;;
52208;SDS011;38507;53.132;6.394;2023-01-10T08:51:57;35.17;;;4.72;;
52208;SDS011;38507;53.132;6.394;2023-01-10T08:54:29;33.08;;;5.40;;
52208;SDS011;38507;53.132;6.394;2023-01-10T08:57:01;26.40;;;4.57;;
52208;SDS011;38507;53.132;6.394;2023-01-10T08:59:30;27.15;;;5.30;;
52208;SDS011;38507;53.132;6.394;2023-01-10T09:01:59;32.40;;;4.68;;
52208;SDS011;38507;53.132;6.394;2023-01-10T09:04:25;45.30;;;5.18;;
52208;SDS011;38507;53.132;6.394;2023-01-10T09:06:53;27.13;;;4.18;;
52208;SDS011;38507;53.132;6.394;2023-01-10T09:09:22;39.50;;;5.15;;
52208;SDS011;38507;53.132;6.394;2023-01-10T09:11:51;30.65;;;4.82;;
52208;SDS011;38507;53.132;6.394;2023-01-10T09:14:19;24.88;;;4.47;;
52208;SDS011;38507;53.132;6.394;2023-01-10T09:16:53;26.13;;;4.53;;
52208;SDS011;38507;53.132;6.394;2023-01-10T09:19:19;19.10;;;3.55;;
52208;SDS011;38507;53.132;6.394;2023-01-10T09:21:48;32.50;;;4.80;;
52208;SDS011;38507;53.132;6.394;2023-01-10T09:27:29;34.67;;;4.68;;
52208;SDS011;38507;53.132;6.394;2023-01-10T09:29:55;32.42;;;4.20;;
52208;SDS011;38507;53.132;6.394;2023-01-10T09:32:20;24.20;;;4.13;;
52208;SDS011;38507;53.132;6.394;2023-01-10T09:34:55;21.52;;;4.13;;
52208;SDS011;38507;53.132;6.394;2023-01-10T09:37:20;20.63;;;3.60;;
52208;SDS011;38507;53.132;6.394;2023-01-10T09:39:46;37.47;;;4.53;;
52208;SDS011;38507;53.132;6.394;2023-01-10T09:45:34;29.55;;;4.40;;
52208;SDS011;38507;53.132;6.394;2023-01-10T09:54:28;25.38;;;4.10;;
52208;SDS011;38507;53.132;6.394;2023-01-10T09:57:02;27.40;;;4.38;;
52208;SDS011;38507;53.132;6.394;2023-01-10T09:59:31;25.80;;;4.78;;
52208;SDS011;38507;53.132;6.394;2023-01-10T10:29:53;39.13;;;5.18;;
52208;SDS011;38507;53.132;6.394;2023-01-10T10:41:54;27.10;;;3.97;;
52208;SDS011;38507;53.132;6.394;2023-01-10T10:43:57;33.90;;;3.70;;
52208;SDS011;38507;53.132;6.394;2023-01-10T10:46:29;25.50;;;4.85;;
52208;SDS011;38507;53.132;6.394;2023-01-10T10:52:32;30.45;;;3.95;;
52208;SDS011;38507;53.132;6.394;2023-01-10T10:55:15;24.17;;;4.32;;
52208;SDS011;38507;53.132;6.394;2023-01-10T10:58:37;32.42;;;4.75;;
52208;SDS011;38507;53.132;6.394;2023-01-10T11:01:26;31.15;;;4.43;;
52208;SDS011;38507;53.132;6.394;2023-01-10T11:06:36;25.40;;;5.80;;
52208;SDS011;38507;53.132;6.394;2023-01-10T11:09:35;36.63;;;7.05;;
52208;SDS011;38507;53.132;6.394;2023-01-10T11:12:15;33.25;;;7.25;;
52208;SDS011;38507;53.132;6.394;2023-01-10T11:15:03;31.48;;;5.88;;
52208;SDS011;38507;53.132;6.394;2023-01-10T11:17:30;31.13;;;7.20;;
52208;SDS011;38507;53.132;6.394;2023-01-10T11:23:49;42.88;;;7.15;;
52208;SDS011;38507;53.132;6.394;2023-01-10T11:33:29;29.63;;;7.63;;
52208;SDS011;38507;53.132;6.394;2023-01-10T11:36:26;23.55;;;7.38;;
52208;SDS011;38507;53.132;6.394;2023-01-10T11:39:14;33.28;;;8.32;;
52208;SDS011;38507;53.132;6.394;2023-01-10T11:41:46;26.63;;;7.82;;
52208;SDS011;38507;53.132;6.394;2023-01-10T11:44:29;31.45;;;8.30;;
52208;SDS011;38507;53.132;6.394;2023-01-10T11:47:02;37.58;;;9.63;;
52208;SDS011;38507;53.132;6.394;2023-01-10T11:49:55;34.58;;;8.02;;
52208;SDS011;38507;53.132;6.394;2023-01-10T11:52:42;33.78;;;8.68;;
52208;SDS011;38507;53.132;6.394;2023-01-10T11:55:23;26.80;;;8.23;;
52208;SDS011;38507;53.132;6.394;2023-01-10T11:57:53;35.55;;;7.60;;
52208;SDS011;38507;53.132;6.394;2023-01-10T12:00:29;41.30;;;8.27;;
52208;SDS011;38507;53.132;6.394;2023-01-10T12:06:13;28.27;;;7.90;;
52208;SDS011;38507;53.132;6.394;2023-01-10T12:08:41;24.92;;;7.65;;
52208;SDS011;38507;53.132;6.394;2023-01-10T12:18:51;40.35;;;6.45;;
52208;SDS011;38507;53.132;6.394;2023-01-10T12:21:44;36.53;;;6.82;;
52208;SDS011;38507;53.132;6.394;2023-01-10T12:24:30;31.88;;;6.60;;
52208;SDS011;38507;53.132;6.394;2023-01-10T12:26:59;31.77;;;6.63;;
52208;SDS011;38507;53.132;6.394;2023-01-10T12:29:28;29.10;;;6.25;;
52208;SDS011;38507;53.132;6.394;2023-01-10T12:32:03;28.30;;;6.22;;
52208;SDS011;38507;53.132;6.394;2023-01-10T12:34:44;27.95;;;6.78;;
52208;SDS011;38507;53.132;6.394;2023-01-10T12:37:25;36.28;;;6.10;;
52208;SDS011;38507;53.132;6.394;2023-01-10T12:43:16;30.15;;;5.65;;
52208;SDS011;38507;53.132;6.394;2023-01-10T12:46:21;30.92;;;5.93;;
52208;SDS011;38507;53.132;6.394;2023-01-10T12:51:45;30.83;;;6.03;;
52208;SDS011;38507;53.132;6.394;2023-01-10T12:54:15;31.42;;;6.28;;
52208;SDS011;38507;53.132;6.394;2023-01-10T12:56:50;29.85;;;6.30;;
52208;SDS011;38507;53.132;6.394;2023-01-10T12:59:21;29.77;;;6.97;;
52208;SDS011;38507;53.132;6.394;2023-01-10T13:01:55;29.38;;;5.65;;
52208;SDS011;38507;53.132;6.394;2023-01-10T13:06:54;33.47;;;6.38;;
52208;SDS011;38507;53.132;6.394;2023-01-10T13:09:22;28.40;;;6.60;;
52208;SDS011;38507;53.132;6.394;2023-01-10T13:12:04;30.25;;;5.47;;
52208;SDS011;38507;53.132;6.394;2023-01-10T13:14:58;29.30;;;6.28;;
52208;SDS011;38507;53.132;6.394;2023-01-10T13:20:17;25.00;;;5.30;;
52208;SDS011;38507;53.132;6.394;2023-01-10T13:22:44;31.90;;;5.75;;
52208;SDS011;38507;53.132;6.394;2023-01-10T13:25:18;26.80;;;5.50;;
52208;SDS011;38507;53.132;6.394;2023-01-10T13:27:44;27.65;;;5.13;;
52208;SDS011;38507;53.132;6.394;2023-01-10T13:33:03;30.77;;;5.93;;
52208;SDS011;38507;53.132;6.394;2023-01-10T13:35:40;22.35;;;5.53;;
52208;SDS011;38507;53.132;6.394;2023-01-10T13:38:18;25.20;;;6.38;;
52208;SDS011;38507;53.132;6.394;2023-01-10T13:41:04;25.45;;;4.90;;
52208;SDS011;38507;53.132;6.394;2023-01-10T13:51:17;27.77;;;4.70;;
52208;SDS011;38507;53.132;6.394;2023-01-10T14:02:26;33.75;;;5.07;;
52208;SDS011;38507;53.132;6.394;2023-01-10T14:04:57;26.13;;;4.40;;
52208;SDS011;38507;53.132;6.394;2023-01-10T14:10:25;20.42;;;4.60;;
52208;SDS011;38507;53.132;6.394;2023-01-10T14:13:14;26.40;;;4.35;;
52208;SDS011;38507;53.132;6.394;2023-01-10T14:15:45;25.17;;;4.72;;
52208;SDS011;38507;53.132;6.394;2023-01-10T14:18:21;26.58;;;3.75;;
52208;SDS011;38507;53.132;6.394;2023-01-10T14:21:06;28.38;;;4.85;;
52208;SDS011;38507;53.132;6.394;2023-01-10T14:23:40;26.00;;;4.57;;
52208;SDS011;38507;53.132;6.394;2023-01-10T14:26:25;24.42;;;4.63;;
52208;SDS011;38507;53.132;6.394;2023-01-10T14:29:05;23.70;;;3.90;;
52208;SDS011;38507;53.132;6.394;2023-01-10T14:31:33;22.45;;;4.35;;
52208;SDS011;38507;53.132;6.394;2023-01-10T14:34:02;25.83;;;3.92;;
52208;SDS011;38507;53.132;6.394;2023-01-10T14:36:33;29.02;;;4.53;;
52208;SDS011;38507;53.132;6.394;2023-01-10T14:39:28;30.38;;;4.28;;
52208;SDS011;38507;53.132;6.394;2023-01-10T14:41:57;23.42;;;4.07;;
52208;SDS011;38507;53.132;6.394;2023-01-10T14:46:59;26.98;;;4.30;;
52208;SDS011;38507;53.132;6.394;2023-01-10T14:49:32;26.27;;;4.70;;
52208;SDS011;38507;53.132;6.394;2023-01-10T14:52:15;25.35;;;3.55;;
52208;SDS011;38507;53.132;6.394;2023-01-10T14:54:46;26.42;;;3.85;;
52208;SDS011;38507;53.132;6.394;2023-01-10T14:57:19;24.70;;;4.40;;
52208;SDS011;38507;53.132;6.394;2023-01-10T14:59:48;22.23;;;3.92;;
52208;SDS011;38507;53.132;6.394;2023-01-10T15:02:19;23.05;;;4.43;;
52208;SDS011;38507;53.132;6.394;2023-01-10T15:04:53;26.40;;;3.83;;
52208;SDS011;38507;53.132;6.394;2023-01-10T15:07:28;27.27;;;3.60;;
52208;SDS011;38507;53.132;6.394;2023-01-10T15:09:55;23.83;;;3.75;;
52208;SDS011;38507;53.132;6.394;2023-01-10T15:12:26;29.27;;;3.50;;
52208;SDS011;38507;53.132;6.394;2023-01-10T15:15:03;29.38;;;3.90;;
52208;SDS011;38507;53.132;6.394;2023-01-10T15:17:37;18.10;;;3.78;;
52208;SDS011;38507;53.132;6.394;2023-01-10T15:20:04;28.50;;;4.03;;
52208;SDS011;38507;53.132;6.394;2023-01-10T15:22:34;29.17;;;3.83;;
52208;SDS011;38507;53.132;6.394;2023-01-10T15:25:34;24.48;;;3.90;;
52208;SDS011;38507;53.132;6.394;2023-01-10T15:27:57;21.08;;;3.55;;
52208;SDS011;38507;53.132;6.394;2023-01-10T15:30:24;28.25;;;3.58;;
52208;SDS011;38507;53.132;6.394;2023-01-10T15:32:53;23.10;;;4.32;;
52208;SDS011;38507;53.132;6.394;2023-01-10T15:35:31;14.07;;;3.03;;
52208;SDS011;38507;53.132;6.394;2023-01-10T15:38:07;29.00;;;4.50;;
52208;SDS011;38507;53.132;6.394;2023-01-10T15:40:41;27.17;;;4.28;;
52208;SDS011;38507;53.132;6.394;2023-01-10T15:45:50;18.92;;;3.78;;
52208;SDS011;38507;53.132;6.394;2023-01-10T15:50:56;26.05;;;3.85;;
52208;SDS011;38507;53.132;6.394;2023-01-10T15:56:35;27.58;;;4.93;;
52208;SDS011;38507;53.132;6.394;2023-01-10T16:02:00;26.20;;;3.97;;
52208;SDS011;38507;53.132;6.394;2023-01-10T16:04:54;30.85;;;3.75;;
52208;SDS011;38507;53.132;6.394;2023-01-10T16:07:36;24.10;;;4.10;;
52208;SDS011;38507;53.132;6.394;2023-01-10T16:10:14;22.33;;;4.05;;
52208;SDS011;38507;53.132;6.394;2023-01-10T16:13:02;21.77;;;4.13;;
52208;SDS011;38507;53.132;6.394;2023-01-10T16:16:01;25.17;;;4.57;;
52208;SDS011;38507;53.132;6.394;2023-01-10T16:18:32;23.77;;;3.88;;
52208;SDS011;38507;53.132;6.394;2023-01-10T16:21:12;24.77;;;3.65;;
52208;SDS011;38507;53.132;6.394;2023-01-10T16:23:59;29.23;;;4.57;;
52208;SDS011;38507;53.132;6.394;2023-01-10T16:26:28;25.10;;;4.55;;
52208;SDS011;38507;53.132;6.394;2023-01-10T16:29:45;26.02;;;3.70;;
52208;SDS011;38507;53.132;6.394;2023-01-10T16:32:12;24.58;;;4.30;;
52208;SDS011;38507;53.132;6.394;2023-01-10T16:34:46;23.63;;;3.75;;
52208;SDS011;38507;53.132;6.394;2023-01-10T16:37:25;24.27;;;4.55;;
52208;SDS011;38507;53.132;6.394;2023-01-10T16:39:54;26.13;;;4.20;;
52208;SDS011;38507;53.132;6.394;2023-01-10T16:42:23;28.42;;;4.32;;
52208;SDS011;38507;53.132;6.394;2023-01-10T16:45:27;20.08;;;4.32;;
52208;SDS011;38507;53.132;6.394;2023-01-10T16:48:00;24.95;;;4.50;;
52208;SDS011;38507;53.132;6.394;2023-01-10T16:50:29;18.42;;;3.83;;
52208;SDS011;38507;53.132;6.394;2023-01-10T16:52:58;25.48;;;4.20;;
52208;SDS011;38507;53.132;6.394;2023-01-10T16:58:49;25.80;;;3.88;;
52208;SDS011;38507;53.132;6.394;2023-01-10T17:01:20;22.02;;;4.60;;
52208;SDS011;38507;53.132;6.394;2023-01-10T17:04:24;24.83;;;4.45;;
52208;SDS011;38507;53.132;6.394;2023-01-10T17:06:54;19.52;;;3.72;;
52208;SDS011;38507;53.132;6.394;2023-01-10T17:09:32;18.45;;;4.30;;
52208;SDS011;38507;53.132;6.394;2023-01-10T17:12:00;23.63;;;4.30;;
52208;SDS011;38507;53.132;6.394;2023-01-10T17:17:45;18.13;;;4.15;;
52208;SDS011;38507;53.132;6.394;2023-01-10T17:20:14;20.15;;;3.40;;
52208;SDS011;38507;53.132;6.394;2023-01-10T17:22:43;22.30;;;3.80;;
52208;SDS011;38507;53.132;6.394;2023-01-10T17:25:17;21.35;;;4.30;;
52208;SDS011;38507;53.132;6.394;2023-01-10T17:27:43;15.82;;;3.05;;
52208;SDS011;38507;53.132;6.394;2023-01-10T17:30:09;21.42;;;3.58;;
52208;SDS011;38507;53.132;6.394;2023-01-10T17:32:36;21.40;;;3.60;;
52208;SDS011;38507;53.132;6.394;2023-01-10T17:35:02;17.92;;;4.13;;
52208;SDS011;38507;53.132;6.394;2023-01-10T17:37:28;20.77;;;4.28;;
52208;SDS011;38507;53.132;6.394;2023-01-10T17:39:54;23.20;;;5.50;;
52208;SDS011;38507;53.132;6.394;2023-01-10T17:42:19;19.65;;;5.82;;
52208;SDS011;38507;53.132;6.394;2023-01-10T17:44:48;25.45;;;5.43;;
52208;SDS011;38507;53.132;6.394;2023-01-10T17:47:13;17.45;;;3.40;;
52208;SDS011;38507;53.132;6.394;2023-01-10T17:49:39;13.73;;;3.58;;
52208;SDS011;38507;53.132;6.394;2023-01-10T17:52:06;14.70;;;3.03;;
52208;SDS011;38507;53.132;6.394;2023-01-10T17:54:32;11.27;;;2.55;;
52208;SDS011;38507;53.132;6.394;2023-01-10T17:56:59;9.82;;;1.92;;
52208;SDS011;38507;53.132;6.394;2023-01-10T17:59:28;7.95;;;2.17;;
52208;SDS011;38507;53.132;6.394;2023-01-10T18:02:05;7.15;;;1.85;;
52208;SDS011;38507;53.132;6.394;2023-01-10T18:04:35;13.23;;;2.35;;
52208;SDS011;38507;53.132;6.394;2023-01-10T18:07:04;12.88;;;2.53;;
52208;SDS011;38507;53.132;6.394;2023-01-10T18:09:29;12.10;;;2.03;;
52208;SDS011;38507;53.132;6.394;2023-01-10T18:11:58;9.60;;;2.28;;
52208;SDS011;38507;53.132;6.394;2023-01-10T18:14:24;9.85;;;2.47;;
52208;SDS011;38507;53.132;6.394;2023-01-10T18:17:03;12.82;;;2.20;;
52208;SDS011;38507;53.132;6.394;2023-01-10T18:19:30;7.30;;;1.95;;